Time,TemperatureF,DewpointF,PressureIn,WindDirection,WindDirectionDegrees,WindSpeedMPH,WindSpeedGustMPH,Humidity,HourlyPrecipIn,Conditions,Clouds,dailyrainin,SolarRadiationWatts/m^2,SoftwareType,DateUTC
2013-04-22 00:01:00,41.0,22.0,-100.00,North,9,0.0,0.0,46,0.00,,,0.00,0.000000,,2013-04-22 07:01:00,
2013-04-22 00:21:00,41.0,22.0,-100.00,North,9,0.0,0.0,46,0.00,,,0.00,0.000000,,2013-04-22 07:21:00,
2013-04-22 00:31:00,41.0,22.0,-100.00,North,9,0.0,0.0,46,0.00,,,0.00,0.000000,,2013-04-22 07:31:00,
2013-04-22 01:01:00,40.0,16.0,-100.00,North,1,0.0,0.0,37,0.00,,,0.00,0.000000,,2013-04-22 08:01:00,
2013-04-22 02:01:00,40.0,13.0,-100.00,North,356,0.0,0.0,33,0.00,,,0.00,0.000000,,2013-04-22 09:01:00,
2013-04-22 02:11:00,40.0,13.0,-100.00,North,356,0.0,0.0,33,0.00,,,0.00,0.000000,,2013-04-22 09:11:00,
2013-04-22 03:03:00,39.0,9.0,-100.00,NNE,23,0.0,0.0,28,0.00,,,0.00,0.000000,,2013-04-22 10:03:00,
2013-04-22 03:12:00,39.0,9.0,-100.00,NNE,23,0.0,0.0,28,0.00,,,0.00,0.000000,,2013-04-22 10:12:00,
2013-04-22 03:22:00,39.0,9.0,-100.00,NNE,23,0.0,0.0,28,0.00,,,0.00,0.000000,,2013-04-22 10:22:00,
2013-04-22 04:02:00,40.0,3.0,-100.00,North,6,0.0,0.0,21,0.00,,,-99.99,0.000000,,2013-04-22 11:02:00,
2013-04-22 05:01:00,38.0,-1.0,-100.00,NNE,14,0.0,0.0,19,0.00,,,0.00,0.000000,,2013-04-22 12:01:00,
2013-04-22 06:01:00,37.0,3.0,-100.00,North,8,0.0,0.0,23,0.00,,,0.00,0.000000,,2013-04-22 13:01:00,
2013-04-22 07:02:00,39.0,6.0,-100.00,NNW,341,0.0,0.0,25,0.00,,,0.00,4.000000,,2013-04-22 14:02:00,
2013-04-22 07:11:00,39.0,6.0,-100.00,NNW,341,0.0,0.0,25,0.00,,,0.00,4.000000,,2013-04-22 14:11:00,
2013-04-22 07:21:00,39.0,6.0,-100.00,NNW,341,0.0,0.0,25,0.00,,,0.00,4.000000,,2013-04-22 14:21:00,
2013-04-22 07:33:00,39.0,6.0,-100.00,NNW,341,0.0,0.0,25,0.00,,,0.00,4.000000,,2013-04-22 14:33:00,
2013-04-22 08:01:00,52.0,21.0,-100.00,West,274,0.0,0.0,29,0.00,,,0.00,101.000000,,2013-04-22 15:01:00,
2013-04-22 08:11:00,52.0,21.0,-100.00,West,274,0.0,0.0,29,0.00,,,0.00,101.000000,,2013-04-22 15:11:00,
2013-04-22 08:22:00,52.0,21.0,-100.00,West,274,0.0,0.0,29,0.00,,,0.00,101.000000,,2013-04-22 15:22:00,
2013-04-22 08:33:00,52.0,21.0,-100.00,West,274,0.0,0.0,29,0.00,,,0.00,101.000000,,2013-04-22 15:33:00,
2013-04-22 09:02:00,66.0,19.0,-100.00,West,272,2.0,8.0,16,0.00,,,0.00,474.000000,,2013-04-22 16:02:00,
2013-04-22 10:02:00,68.0,20.0,-100.00,West,277,0.0,8.0,16,0.00,,,0.00,743.000000,,2013-04-22 17:02:00,
2013-04-22 11:01:00,73.0,15.0,-100.00,SSW,197,1.0,7.0,11,0.00,,,0.00,975.000000,,2013-04-22 18:01:00,
2013-04-22 12:01:00,73.0,15.0,-100.00,WSW,255,2.0,8.0,11,-99.99,,,-99.99,1146.000000,,2013-04-22 19:01:00,
2013-04-22 13:02:00,77.0,14.0,-100.00,NW,307,2.0,8.0,9,-99.99,,,0.00,1241.000000,,2013-04-22 20:02:00,
2013-04-22 14:02:00,77.0,11.0,-100.00,West,264,2.0,11.0,8,-99.99,,,0.00,1259.000000,,2013-04-22 21:02:00,
2013-04-22 15:02:00,78.0,23.0,-100.00,West,260,2.0,11.0,13,-99.99,,,0.00,1197.000000,,2013-04-22 22:02:00,
2013-04-22 16:02:00,77.0,11.0,-100.00,South,174,3.0,14.0,8,-99.99,,,0.00,1062.000000,,2013-04-22 23:02:00,
2013-04-22 17:02:00,73.0,13.0,-100.00,West,268,3.0,11.0,10,-99.99,,,0.00,869.000000,,2013-04-23 00:02:00,
2013-04-22 18:01:00,69.0,16.0,-100.00,NW,315,2.0,9.0,13,-99.99,,,0.00,566.000000,,2013-04-23 01:01:00,
2013-04-22 19:01:00,61.0,24.0,-100.00,SSW,204,1.0,8.0,24,-99.99,,,0.00,86.000000,,2013-04-23 02:01:00,
2013-04-22 19:12:00,61.0,24.0,-100.00,SSW,204,1.0,8.0,24,-99.99,,,0.00,86.000000,,2013-04-23 02:12:00,
2013-04-22 19:21:00,61.0,24.0,-100.00,SSW,204,1.0,8.0,24,-99.99,,,0.00,86.000000,,2013-04-23 02:21:00,
2013-04-22 19:32:00,61.0,24.0,-100.00,SSW,204,1.0,8.0,24,-99.99,,,0.00,86.000000,,2013-04-23 02:32:00,
2013-04-22 20:01:00,55.0,22.0,-100.00,SSW,200,0.0,6.0,27,0.00,,,0.00,20.000000,,2013-04-23 03:01:00,
2013-04-22 21:03:00,50.0,20.0,-100.00,SSW,208,0.0,3.0,30,0.00,,,0.00,0.000000,,2013-04-23 04:03:00,
2013-04-22 21:12:00,50.0,20.0,-100.00,SSW,208,0.0,3.0,30,0.00,,,0.00,0.000000,,2013-04-23 04:12:00,
2013-04-22 21:23:00,50.0,20.0,-100.00,SSW,208,0.0,3.0,30,0.00,,,0.00,0.000000,,2013-04-23 04:23:00,
2013-04-22 21:32:00,50.0,20.0,-100.00,SSW,208,0.0,3.0,30,0.00,,,0.00,0.000000,,2013-04-23 04:32:00,
2013-04-22 22:02:00,49.0,26.0,-100.00,SW,225,0.0,6.0,40,0.00,,,0.00,0.000000,,2013-04-23 05:02:00,
2013-04-22 22:12:00,49.0,26.0,-100.00,SW,225,0.0,6.0,40,0.00,,,0.00,0.000000,,2013-04-23 05:12:00,
2013-04-22 22:22:00,49.0,26.0,-100.00,SW,225,0.0,6.0,40,0.00,,,0.00,0.000000,,2013-04-23 05:22:00,
2013-04-22 22:32:00,49.0,26.0,-100.00,SW,225,0.0,6.0,40,0.00,,,0.00,0.000000,,2013-04-23 05:32:00,
2013-04-22 23:01:00,43.0,25.0,-100.00,South,188,0.0,3.0,49,0.00,,,0.00,0.000000,,2013-04-23 06:01:00,
2013-04-22 23:12:00,43.0,25.0,-100.00,South,188,0.0,3.0,49,0.00,,,0.00,0.000000,,2013-04-23 06:12:00,
2013-04-22 23:21:00,43.0,25.0,-100.00,South,188,0.0,3.0,49,0.00,,,0.00,0.000000,,2013-04-23 06:21:00,
2013-04-22 23:32:00,43.0,25.0,-100.00,South,188,0.0,3.0,49,0.00,,,0.00,0.000000,,2013-04-23 06:32:00,